createdAt,value
2023-05-14T00:01:28.167Z,4.93
2023-05-14T00:03:54.864Z,5.10
2023-05-14T00:06:21.559Z,5.93
2023-05-14T00:08:47.983Z,6.70
2023-05-14T00:11:14.634Z,5.13
2023-05-14T00:13:41.118Z,7.70
2023-05-14T00:16:07.708Z,5.78
2023-05-14T00:18:34.263Z,7.20
2023-05-14T00:21:00.780Z,9.20
2023-05-14T00:23:27.204Z,6.65
2023-05-14T00:25:53.640Z,5.78
2023-05-14T00:28:20.304Z,7.20
2023-05-14T00:30:46.795Z,6.15
2023-05-14T00:33:13.420Z,8.95
2023-05-14T00:35:39.847Z,6.25
2023-05-14T00:38:06.319Z,6.20
2023-05-14T00:40:33.005Z,6.60
2023-05-14T00:42:59.610Z,6.65
2023-05-14T00:45:26.279Z,5.97
2023-05-14T00:47:54.028Z,8.23
2023-05-14T00:50:21.274Z,6.40
2023-05-14T00:52:48.028Z,7.88
2023-05-14T00:55:16.642Z,6.38
2023-05-14T00:57:43.840Z,5.63
2023-05-14T01:00:10.905Z,6.20
2023-05-14T01:02:37.520Z,6.93
2023-05-14T01:05:04.513Z,6.30
2023-05-14T01:07:42.882Z,8.30
2023-05-14T01:10:32.175Z,6.40
2023-05-14T01:13:21.879Z,6.95
2023-05-14T01:15:49.259Z,6.38
2023-05-14T01:18:19.173Z,7.10
2023-05-14T01:20:46.022Z,6.95
2023-05-14T01:23:12.437Z,6.15
2023-05-14T01:25:38.892Z,6.15
2023-05-14T01:28:14.788Z,7.20
2023-05-14T01:30:48.928Z,8.07
2023-05-14T01:33:21.884Z,5.32
2023-05-14T01:35:49.680Z,7.20
2023-05-14T01:38:18.729Z,6.88
2023-05-14T01:40:46.767Z,5.70
2023-05-14T01:43:15.145Z,6.28
2023-05-14T01:45:42.289Z,6.93
2023-05-14T01:48:08.789Z,5.57
2023-05-14T01:50:35.289Z,7.22
2023-05-14T01:53:01.799Z,7.85
2023-05-14T01:55:28.232Z,6.03
2023-05-14T01:57:54.939Z,5.75
2023-05-14T02:00:27.861Z,7.32
2023-05-14T02:02:54.362Z,6.68
2023-05-14T02:05:21.158Z,5.93
2023-05-14T02:07:47.948Z,6.47
2023-05-14T02:10:14.510Z,6.25
2023-05-14T02:12:41.002Z,7.20
2023-05-14T02:15:09.009Z,5.82
2023-05-14T02:17:35.510Z,7.82
2023-05-14T02:20:02.010Z,5.72
2023-05-14T02:22:28.466Z,6.05
2023-05-14T02:24:54.879Z,6.43
2023-05-14T02:27:21.419Z,5.38
2023-05-14T02:29:47.934Z,7.50
2023-05-14T02:32:14.468Z,7.97
2023-05-14T02:34:40.940Z,5.38
2023-05-14T02:37:07.418Z,6.55
2023-05-14T02:39:33.944Z,5.60
2023-05-14T02:42:00.381Z,9.60
2023-05-14T02:44:26.797Z,6.75
2023-05-14T02:46:53.370Z,5.80
2023-05-14T02:49:19.937Z,5.57
2023-05-14T02:51:46.374Z,7.72
2023-05-14T02:54:12.762Z,6.57
2023-05-14T02:56:39.224Z,7.07
2023-05-14T02:59:05.656Z,6.38
2023-05-14T03:01:32.525Z,7.72
2023-05-14T03:03:59.439Z,5.90
2023-05-14T03:06:25.901Z,6.68
2023-05-14T03:08:52.303Z,7.95
2023-05-14T03:11:18.757Z,7.10
2023-05-14T03:13:45.327Z,7.97
2023-05-14T03:16:11.866Z,6.32
2023-05-14T03:18:38.299Z,6.65
2023-05-14T03:21:04.795Z,7.70
2023-05-14T03:23:35.053Z,7.78
2023-05-14T03:26:02.159Z,6.40
2023-05-14T03:28:28.561Z,6.20
2023-05-14T03:30:55.060Z,6.15
2023-05-14T03:33:21.881Z,7.90
2023-05-14T03:35:48.388Z,6.70
2023-05-14T03:38:14.798Z,7.93
2023-05-14T03:40:41.275Z,5.38
2023-05-14T03:43:07.669Z,6.18
2023-05-14T03:45:34.108Z,6.57
2023-05-14T03:48:00.684Z,5.15
2023-05-14T03:50:27.282Z,6.07
2023-05-14T03:52:54.932Z,7.38
2023-05-14T03:55:21.600Z,6.05
2023-05-14T03:57:48.710Z,8.48
2023-05-14T04:00:16.035Z,7.82
2023-05-14T04:02:42.733Z,7.43
2023-05-14T04:05:09.629Z,7.15
2023-05-14T04:07:36.056Z,6.60
2023-05-14T04:10:05.727Z,5.53
2023-05-14T04:12:32.152Z,7.28
2023-05-14T04:14:58.600Z,7.88
2023-05-14T04:17:25.701Z,6.18
2023-05-14T04:19:52.271Z,6.38
2023-05-14T04:22:18.698Z,6.28
2023-05-14T04:24:45.114Z,5.47
2023-05-14T04:27:11.517Z,6.13
2023-05-14T04:29:37.913Z,6.97
2023-05-14T04:32:04.854Z,6.53
2023-05-14T04:34:31.380Z,5.78
2023-05-14T04:36:57.812Z,6.95
2023-05-14T04:39:24.685Z,9.02
2023-05-14T04:41:51.182Z,8.02
2023-05-14T04:44:17.857Z,6.95
2023-05-14T04:46:44.260Z,7.55
2023-05-14T04:49:10.704Z,7.10
2023-05-14T04:51:37.120Z,6.63
2023-05-14T04:54:03.706Z,7.43
2023-05-14T04:56:30.111Z,7.80
2023-05-14T04:58:56.559Z,6.47
2023-05-14T05:01:23.651Z,6.30
2023-05-14T05:03:50.958Z,7.22
2023-05-14T05:06:17.724Z,6.57
2023-05-14T05:08:44.141Z,5.72
2023-05-14T05:11:10.622Z,8.20
2023-05-14T05:13:37.062Z,6.28
2023-05-14T05:16:03.647Z,7.20
2023-05-14T05:18:30.294Z,7.28
2023-05-14T05:20:56.726Z,6.32
2023-05-14T05:23:23.378Z,8.02
2023-05-14T05:25:50.506Z,5.40
2023-05-14T05:28:16.958Z,5.55
2023-05-14T05:30:45.184Z,5.88
2023-05-14T05:33:12.520Z,6.63
2023-05-14T05:35:39.095Z,7.40
2023-05-14T05:38:05.569Z,8.00
2023-05-14T05:40:32.052Z,6.75
2023-05-14T05:42:58.461Z,5.15
2023-05-14T05:45:24.867Z,5.45
2023-05-14T05:47:51.360Z,5.32
2023-05-14T05:50:18.952Z,7.07
2023-05-14T05:52:46.536Z,6.18
2023-05-14T05:55:12.963Z,6.90
2023-05-14T05:57:39.423Z,6.15
2023-05-14T06:00:13.237Z,5.80
2023-05-14T06:02:40.805Z,7.47
2023-05-14T06:05:08.547Z,6.15
2023-05-14T06:07:35.325Z,7.75
2023-05-14T06:10:02.044Z,5.95
2023-05-14T06:12:28.507Z,5.20
2023-05-14T06:14:57.706Z,6.18
2023-05-14T06:17:25.228Z,7.68
2023-05-14T06:19:52.304Z,5.10
2023-05-14T06:22:18.960Z,6.38
2023-05-14T06:24:45.644Z,7.35
2023-05-14T06:27:12.043Z,9.45
2023-05-14T06:29:38.625Z,7.32
2023-05-14T06:32:05.573Z,9.20
2023-05-14T06:34:32.157Z,6.38
2023-05-14T06:36:58.646Z,8.52
2023-05-14T06:39:25.102Z,6.57
2023-05-14T06:41:51.671Z,5.63
2023-05-14T06:44:19.515Z,7.53
2023-05-14T06:46:46.001Z,7.57
2023-05-14T06:49:12.471Z,5.65
2023-05-14T06:51:39.136Z,6.68
2023-05-14T06:54:05.619Z,6.38
2023-05-14T06:56:32.052Z,7.80
2023-05-14T06:58:58.462Z,10.05
2023-05-14T07:01:24.938Z,7.65
2023-05-14T07:03:51.441Z,8.57
2023-05-14T07:06:17.912Z,11.10
2023-05-14T07:08:47.338Z,12.02
2023-05-14T07:11:14.124Z,9.00
2023-05-14T07:13:41.197Z,9.82
2023-05-14T07:16:11.265Z,8.10
2023-05-14T07:18:37.802Z,5.60
2023-05-14T07:21:07.234Z,9.40
2023-05-14T07:23:36.537Z,9.10
2023-05-14T07:26:03.551Z,13.70
2023-05-14T07:28:30.002Z,11.82
2023-05-14T07:30:56.575Z,10.15
2023-05-14T07:33:23.560Z,7.88
2023-05-14T07:35:50.530Z,9.85
2023-05-14T07:38:20.020Z,7.95
2023-05-14T07:40:46.707Z,10.98
2023-05-14T07:43:14.480Z,9.77
2023-05-14T07:45:41.223Z,14.05
2023-05-14T07:48:07.882Z,14.23
2023-05-14T07:50:34.510Z,9.93
2023-05-14T07:53:00.896Z,11.88
2023-05-14T07:55:27.292Z,7.55
2023-05-14T07:57:53.725Z,7.05
2023-05-14T08:00:20.299Z,8.38
2023-05-14T08:02:46.892Z,7.95
2023-05-14T08:05:13.505Z,8.52
2023-05-14T08:07:39.965Z,9.77
2023-05-14T08:10:07.806Z,8.57
2023-05-14T08:12:34.318Z,6.05
2023-05-14T08:15:00.786Z,6.47
2023-05-14T08:17:27.295Z,6.75
2023-05-14T08:19:54.124Z,6.72
2023-05-14T08:22:20.639Z,6.60
2023-05-14T08:24:47.176Z,7.13
2023-05-14T08:27:13.646Z,8.13
2023-05-14T08:29:40.059Z,7.30
2023-05-14T08:32:19.359Z,8.82
2023-05-14T08:34:50.110Z,7.78
2023-05-14T08:37:16.527Z,7.05
2023-05-14T08:39:42.946Z,7.05
2023-05-14T08:42:12.688Z,7.82
2023-05-14T08:44:47.733Z,5.47
2023-05-14T08:47:16.068Z,6.50
2023-05-14T08:49:44.938Z,5.43
2023-05-14T08:52:12.356Z,6.28
2023-05-14T08:54:40.394Z,4.70
2023-05-14T08:57:09.929Z,10.52
2023-05-14T08:59:36.587Z,6.97
2023-05-14T09:02:06.363Z,6.38
2023-05-14T09:04:33.760Z,6.55
2023-05-14T09:07:02.130Z,9.35
2023-05-14T09:09:28.670Z,7.28
2023-05-14T09:11:55.179Z,8.82
2023-05-14T09:14:22.459Z,10.52
2023-05-14T09:16:50.614Z,8.07
2023-05-14T09:19:19.227Z,7.10
2023-05-14T09:21:50.077Z,6.53
2023-05-14T09:24:26.849Z,5.63
2023-05-14T09:26:54.690Z,7.57
2023-05-14T09:29:21.390Z,10.70
2023-05-14T09:31:50.473Z,6.40
2023-05-14T09:34:28.374Z,8.05
2023-05-14T09:36:58.624Z,6.40
2023-05-14T09:39:25.769Z,8.38
2023-05-14T09:41:52.345Z,8.85
2023-05-14T09:44:19.746Z,6.88
2023-05-14T09:46:46.948Z,8.07
2023-05-14T09:49:13.539Z,6.45
2023-05-14T09:51:40.095Z,8.23
2023-05-14T09:54:07.342Z,7.15
2023-05-14T09:56:34.991Z,8.32
2023-05-14T09:59:01.548Z,9.98
2023-05-14T10:01:29.286Z,9.90
2023-05-14T10:03:56.508Z,7.90
2023-05-14T10:06:29.459Z,8.98
2023-05-14T10:08:59.898Z,8.57
2023-05-14T10:11:30.465Z,9.57
2023-05-14T10:14:04.550Z,11.93
2023-05-14T10:16:37.921Z,6.88
2023-05-14T10:19:11.823Z,7.43
2023-05-14T10:21:41.212Z,9.73
2023-05-14T10:24:09.833Z,7.72
2023-05-14T10:26:39.268Z,7.80
2023-05-14T10:29:06.520Z,8.30
2023-05-14T10:31:56.525Z,7.32
2023-05-14T10:34:40.765Z,6.20
2023-05-14T10:37:11.574Z,9.13
2023-05-14T10:39:56.776Z,36.63
2023-05-14T10:42:25.812Z,19.80
2023-05-14T10:44:58.888Z,18.60
2023-05-14T10:47:29.424Z,20.48
2023-05-14T10:49:57.728Z,18.00
2023-05-14T10:52:26.358Z,26.20
2023-05-14T10:55:03.131Z,16.05
2023-05-14T10:57:31.600Z,24.70
2023-05-14T11:00:00.241Z,18.23
2023-05-14T11:02:27.683Z,22.95
2023-05-14T11:04:58.132Z,13.00
2023-05-14T11:07:29.100Z,16.20
2023-05-14T11:10:01.260Z,16.08
2023-05-14T11:12:28.811Z,14.32
2023-05-14T11:14:59.354Z,17.55
2023-05-14T11:17:27.103Z,9.93
2023-05-14T11:19:54.023Z,12.60
2023-05-14T11:22:20.910Z,14.50
2023-05-14T11:24:47.683Z,11.77
2023-05-14T11:27:14.211Z,9.57
2023-05-14T11:29:46.792Z,9.48
2023-05-14T11:32:14.299Z,9.38
2023-05-14T11:34:42.061Z,10.48
2023-05-14T11:37:10.098Z,12.52
2023-05-14T11:39:39.616Z,11.57
2023-05-14T11:42:12.288Z,11.90
2023-05-14T11:44:39.333Z,9.55
2023-05-14T11:47:06.512Z,7.90
2023-05-14T11:49:35.473Z,8.40
2023-05-14T11:52:03.821Z,9.38
2023-05-14T11:54:31.599Z,9.60
2023-05-14T11:56:59.419Z,12.82
2023-05-14T11:59:27.556Z,9.23
2023-05-14T12:01:55.060Z,8.50
2023-05-14T12:04:22.911Z,9.63
2023-05-14T12:06:51.527Z,7.75
2023-05-14T12:09:19.307Z,7.28
2023-05-14T12:11:51.054Z,7.40
2023-05-14T12:14:20.738Z,6.32
2023-05-14T12:16:48.735Z,6.60
2023-05-14T12:19:17.881Z,8.98
2023-05-14T12:21:45.596Z,10.13
2023-05-14T12:24:13.351Z,6.45
2023-05-14T12:26:43.984Z,8.63
2023-05-14T12:29:13.437Z,7.78
2023-05-14T12:31:46.645Z,7.68
2023-05-14T12:34:13.265Z,7.32
2023-05-14T12:36:39.761Z,8.18
2023-05-14T12:39:06.182Z,6.13
2023-05-14T12:41:33.496Z,9.30
2023-05-14T12:44:00.798Z,5.90
2023-05-14T12:46:27.897Z,5.50
2023-05-14T12:48:54.810Z,6.07
2023-05-14T12:51:21.304Z,7.00
2023-05-14T12:53:48.164Z,9.15
2023-05-14T12:56:14.966Z,7.07
2023-05-14T12:58:41.509Z,6.60
2023-05-14T13:01:08.540Z,6.78
2023-05-14T13:03:35.052Z,5.90
2023-05-14T13:06:01.623Z,10.57
2023-05-14T13:08:28.314Z,7.80
2023-05-14T13:10:55.853Z,4.97
2023-05-14T13:13:23.503Z,5.60
2023-05-14T13:15:50.075Z,7.15
2023-05-14T13:18:20.404Z,5.35
2023-05-14T13:20:49.480Z,6.53
2023-05-14T13:23:15.909Z,5.38
2023-05-14T13:25:42.340Z,10.13
2023-05-14T13:28:09.292Z,6.50
2023-05-14T13:30:35.983Z,5.07
2023-05-14T13:33:02.532Z,9.68
2023-05-14T13:35:29.025Z,6.65
2023-05-14T13:37:55.453Z,8.25
2023-05-14T13:40:22.020Z,7.65
2023-05-14T13:42:48.496Z,7.18
2023-05-14T13:45:14.984Z,5.25
2023-05-14T13:47:41.517Z,5.13
2023-05-14T13:50:08.324Z,8.30
2023-05-14T13:52:34.789Z,4.72
2023-05-14T13:55:01.624Z,8.77
2023-05-14T13:57:28.048Z,7.90
2023-05-14T13:59:54.516Z,6.13
2023-05-14T14:02:21.083Z,6.18
2023-05-14T14:04:49.353Z,4.60
2023-05-14T14:07:15.842Z,4.65
2023-05-14T14:09:42.269Z,5.60
2023-05-14T14:12:09.258Z,10.23
2023-05-14T14:14:35.695Z,9.25
2023-05-14T14:17:02.162Z,6.68
2023-05-14T14:19:28.592Z,5.97
2023-05-14T14:21:55.065Z,8.80
2023-05-14T14:24:21.460Z,10.98
2023-05-14T14:26:47.936Z,7.35
2023-05-14T14:29:14.446Z,5.38
2023-05-14T14:31:41.022Z,6.28
2023-05-14T14:34:07.541Z,7.95
2023-05-14T14:36:34.029Z,6.70
2023-05-14T14:39:00.441Z,4.93
2023-05-14T14:41:27.408Z,8.05
2023-05-14T14:43:53.928Z,5.30
2023-05-14T14:46:20.388Z,5.72
2023-05-14T14:48:46.914Z,3.95
2023-05-14T14:51:13.449Z,5.25
2023-05-14T14:53:40.469Z,7.47
2023-05-14T14:56:07.102Z,5.45
2023-05-14T14:58:33.676Z,6.10
2023-05-14T15:01:01.170Z,6.32
2023-05-14T15:03:28.068Z,4.20
2023-05-14T15:05:54.612Z,4.68
2023-05-14T15:08:25.643Z,5.07
2023-05-14T15:10:52.240Z,5.10
2023-05-14T15:13:19.118Z,5.05
2023-05-14T15:15:45.708Z,5.30
2023-05-14T15:18:12.210Z,3.85
2023-05-14T15:20:38.906Z,5.47
2023-05-14T15:23:06.085Z,3.80
2023-05-14T15:25:32.668Z,4.03
2023-05-14T15:27:59.126Z,5.03
2023-05-14T15:30:25.594Z,3.53
2023-05-14T15:32:52.379Z,3.92
2023-05-14T15:35:19.060Z,7.05
2023-05-14T15:37:45.569Z,3.17
2023-05-14T15:40:12.488Z,4.78
2023-05-14T15:42:43.650Z,5.15
2023-05-14T15:45:12.342Z,6.45
2023-05-14T15:47:38.861Z,7.70
2023-05-14T15:50:05.914Z,9.90
2023-05-14T15:52:32.486Z,7.55
2023-05-14T15:54:59.598Z,10.25
2023-05-14T15:57:26.253Z,15.05
2023-05-14T15:59:52.685Z,13.05
2023-05-14T16:02:19.170Z,8.07
2023-05-14T16:04:45.680Z,11.43
2023-05-14T16:07:13.164Z,12.27
2023-05-14T16:09:39.595Z,13.63
2023-05-14T16:12:06.847Z,7.95
2023-05-14T16:14:34.678Z,11.30
2023-05-14T16:17:02.068Z,7.57
2023-05-14T16:19:28.674Z,8.50
2023-05-14T16:21:55.097Z,6.90
2023-05-14T16:24:21.638Z,8.82
2023-05-14T16:26:48.206Z,8.57
2023-05-14T16:29:14.664Z,9.50
2023-05-14T16:31:41.230Z,9.52
2023-05-14T16:34:07.687Z,8.13
2023-05-14T16:36:34.253Z,11.27
2023-05-14T16:41:30.064Z,9.38
2023-05-14T16:43:56.552Z,8.98
2023-05-14T16:46:23.131Z,10.40
2023-05-14T16:48:50.701Z,6.97
2023-05-14T16:51:17.270Z,7.10
2023-05-14T16:53:43.679Z,5.72
2023-05-14T16:56:11.034Z,9.30
2023-05-14T16:58:37.508Z,8.57
2023-05-14T17:01:04.147Z,10.70
2023-05-14T17:03:30.640Z,10.05
2023-05-14T17:05:57.172Z,9.95
2023-05-14T17:08:23.681Z,8.98
2023-05-14T17:10:50.182Z,12.23
2023-05-14T17:13:16.821Z,9.02
2023-05-14T17:15:44.033Z,14.93
2023-05-14T17:18:12.041Z,12.27
2023-05-14T17:20:38.634Z,11.43
2023-05-14T17:23:05.024Z,9.70
2023-05-14T17:25:33.163Z,8.73
2023-05-14T17:28:00.092Z,10.48
2023-05-14T17:30:26.635Z,8.27
2023-05-14T17:32:53.146Z,13.32
2023-05-14T17:35:19.711Z,12.02
2023-05-14T17:37:46.345Z,12.60
2023-05-14T17:40:13.268Z,9.45
2023-05-14T17:42:39.692Z,7.18
2023-05-14T17:45:06.879Z,9.02
2023-05-14T17:47:33.394Z,9.00
2023-05-14T17:49:59.961Z,9.38
2023-05-14T17:52:26.387Z,11.70
2023-05-14T17:54:52.794Z,11.07
2023-05-14T17:57:19.251Z,9.52
2023-05-14T17:59:45.717Z,8.85
2023-05-14T18:02:12.125Z,10.13
2023-05-14T18:04:38.539Z,11.25
2023-05-14T18:07:05.483Z,8.95
2023-05-14T18:09:32.122Z,8.50
2023-05-14T18:11:58.546Z,10.93
2023-05-14T18:14:25.038Z,9.82
2023-05-14T18:16:51.556Z,8.18
2023-05-14T18:19:18.447Z,8.57
2023-05-14T18:21:48.070Z,8.70
2023-05-14T18:24:14.642Z,7.53
2023-05-14T18:26:41.080Z,6.97
2023-05-14T18:29:07.516Z,7.53
2023-05-14T18:31:34.017Z,8.40
2023-05-14T18:34:00.539Z,9.02
2023-05-14T18:36:27.005Z,9.18
2023-05-14T18:38:53.386Z,9.45
2023-05-14T18:41:19.808Z,7.22
2023-05-14T18:43:46.300Z,10.55
2023-05-14T18:46:12.793Z,8.35
2023-05-14T18:48:39.320Z,9.32
2023-05-14T18:51:05.787Z,8.23
2023-05-14T18:53:32.289Z,10.30
2023-05-14T18:56:00.077Z,10.90
2023-05-14T18:58:26.494Z,11.63
2023-05-14T19:00:52.897Z,8.38
2023-05-14T19:03:20.298Z,7.55
2023-05-14T19:05:47.194Z,11.23
2023-05-14T19:08:13.731Z,7.35
2023-05-14T19:10:40.183Z,9.57
2023-05-14T19:13:06.618Z,9.80
2023-05-14T19:15:33.147Z,8.57
2023-05-14T19:18:00.331Z,7.07
2023-05-14T19:20:27.260Z,9.18
2023-05-14T19:22:53.686Z,8.30
2023-05-14T19:25:20.105Z,6.57
2023-05-14T19:27:50.878Z,9.65
2023-05-14T19:30:17.865Z,7.85
2023-05-14T19:32:44.341Z,7.88
2023-05-14T19:35:11.517Z,6.80
2023-05-14T19:37:38.148Z,8.93
2023-05-14T19:40:06.179Z,9.45
2023-05-14T19:42:32.623Z,8.98
2023-05-14T19:44:59.037Z,6.03
2023-05-14T19:47:25.582Z,9.30
2023-05-14T19:49:52.049Z,7.53
2023-05-14T19:52:18.455Z,10.60
2023-05-14T19:54:44.935Z,6.95
2023-05-14T19:57:11.328Z,8.25
2023-05-14T19:59:39.119Z,6.13
2023-05-14T20:02:05.757Z,6.60
2023-05-14T20:04:33.226Z,8.20
2023-05-14T20:06:59.648Z,7.20
2023-05-14T20:09:26.131Z,6.90
2023-05-14T20:11:52.570Z,7.72
2023-05-14T20:14:18.964Z,6.32
2023-05-14T20:16:46.980Z,7.90
2023-05-14T20:19:14.257Z,7.03
2023-05-14T20:21:40.768Z,9.48
2023-05-14T20:24:07.234Z,9.02
2023-05-14T20:26:33.955Z,7.85
2023-05-14T20:29:00.619Z,7.45
2023-05-14T20:31:27.112Z,9.20
2023-05-14T20:33:53.651Z,7.72
2023-05-14T20:36:20.198Z,7.45
2023-05-14T20:38:47.721Z,7.45
2023-05-14T20:41:15.063Z,6.63
2023-05-14T20:43:41.479Z,6.93
2023-05-14T20:46:08.993Z,7.55
2023-05-14T20:48:35.431Z,9.13
2023-05-14T20:51:04.905Z,9.00
2023-05-14T20:53:31.575Z,7.75
2023-05-14T20:55:59.004Z,6.47
2023-05-14T20:58:25.609Z,7.10
2023-05-14T21:00:52.125Z,9.05
2023-05-14T21:03:18.730Z,7.38
2023-05-14T21:05:45.671Z,5.65
2023-05-14T21:08:12.113Z,7.40
2023-05-14T21:10:38.542Z,6.45
2023-05-14T21:13:05.013Z,7.03
2023-05-14T21:15:31.499Z,6.43
2023-05-14T21:17:58.127Z,7.75
2023-05-14T21:20:24.694Z,7.95
2023-05-14T21:22:51.150Z,7.65
2023-05-14T21:25:20.471Z,5.35
2023-05-14T21:27:46.904Z,6.75
2023-05-14T21:30:13.760Z,5.70
2023-05-14T21:32:40.338Z,6.68
2023-05-14T21:35:07.174Z,8.77
2023-05-14T21:37:33.652Z,5.25
2023-05-14T21:40:00.284Z,6.50
2023-05-14T21:42:26.699Z,4.95
2023-05-14T21:44:53.068Z,5.22
2023-05-14T21:47:21.047Z,5.95
2023-05-14T21:49:47.686Z,6.22
2023-05-14T21:52:14.192Z,5.90
2023-05-14T21:54:40.589Z,5.05
2023-05-14T21:57:07.035Z,5.65
2023-05-14T21:59:33.951Z,5.20
2023-05-14T22:04:29.703Z,5.35
2023-05-14T22:06:56.374Z,6.38
2023-05-14T22:09:22.828Z,6.80
2023-05-14T22:11:49.290Z,4.75
2023-05-14T22:14:15.701Z,6.75
2023-05-14T22:16:42.161Z,5.03
2023-05-14T22:19:08.770Z,5.00
2023-05-14T22:21:35.359Z,7.30
2023-05-14T22:24:01.887Z,5.63
2023-05-14T22:26:28.308Z,6.00
2023-05-14T22:28:56.859Z,4.68
2023-05-14T22:31:23.604Z,5.50
2023-05-14T22:33:50.044Z,3.92
2023-05-14T22:36:16.690Z,5.50
2023-05-14T22:38:43.845Z,5.05
2023-05-14T22:41:10.894Z,5.88
2023-05-14T22:43:37.329Z,5.57
2023-05-14T22:46:04.042Z,3.83
2023-05-14T22:48:30.519Z,6.47
2023-05-14T22:50:56.964Z,5.53
2023-05-14T22:53:25.167Z,5.32
2023-05-14T22:55:51.813Z,6.70
2023-05-14T22:58:18.270Z,5.95
2023-05-14T23:00:44.740Z,4.78
2023-05-14T23:03:11.133Z,4.25
2023-05-14T23:05:37.650Z,5.05
2023-05-14T23:08:04.275Z,4.90
2023-05-14T23:10:30.721Z,4.45
2023-05-14T23:12:57.180Z,4.00
2023-05-14T23:15:23.907Z,6.75
2023-05-14T23:17:50.645Z,4.88
2023-05-14T23:20:17.653Z,5.40
2023-05-14T23:22:44.093Z,6.40
2023-05-14T23:25:10.576Z,6.57
2023-05-14T23:27:37.045Z,5.18
2023-05-14T23:30:04.252Z,5.43
2023-05-14T23:32:30.784Z,5.05
2023-05-14T23:34:57.270Z,5.43
2023-05-14T23:37:24.015Z,4.95
2023-05-14T23:39:50.788Z,6.50
2023-05-14T23:42:20.163Z,5.60
2023-05-14T23:44:46.609Z,7.93
2023-05-14T23:47:13.101Z,5.82
2023-05-14T23:49:40.806Z,6.28
2023-05-14T23:52:07.307Z,4.07
2023-05-14T23:54:33.801Z,4.93
2023-05-14T23:57:00.403Z,4.90
2023-05-14T23:59:26.904Z,6.30
